Terminal Aerodrome Forecast
Issued by NWS Central Illinois

Home | Current Version | Previous Version | Text Only | Print | Product List | Glossary On
Versions: 1 2 3 4 5 6 7 8 9 10 11 12 13 14 15 16
000
FTUS43 KILX 282337
TAFSPI
TAF
KSPI 282337Z 2900/2924 34007KT P6SM BKN045
     FM290200 33007KT P6SM BKN100
     FM291200 35010KT P6SM BKN050
     FM291500 35012G20KT P6SM OVC020
     FM292200 36012KT P6SM OVC035=

USA.gov is the U.S. government's official web portal to all federal, state and local government web resources and services.